sensor_id;sensor_type;location;lat;lon;timestamp;P1;durP1;ratioP1;P2;durP2;ratioP2
3447;SDS011;1738;49.500;17.736;2023-04-15T00:01:13;1.90;;;1.10;;
3447;SDS011;1738;49.500;17.736;2023-04-15T00:03:39;2.40;;;1.60;;
3447;SDS011;1738;49.500;17.736;2023-04-15T00:06:05;2.40;;;1.40;;
3447;SDS011;1738;49.500;17.736;2023-04-15T00:08:31;2.17;;;1.30;;
3447;SDS011;1738;49.500;17.736;2023-04-15T00:10:56;2.43;;;1.37;;
3447;SDS011;1738;49.500;17.736;2023-04-15T00:13:22;2.13;;;1.23;;
3447;SDS011;1738;49.500;17.736;2023-04-15T00:15:48;2.87;;;1.70;;
3447;SDS011;1738;49.500;17.736;2023-04-15T00:18:14;2.10;;;1.20;;
3447;SDS011;1738;49.500;17.736;2023-04-15T00:20:40;2.27;;;1.50;;
3447;SDS011;1738;49.500;17.736;2023-04-15T00:23:06;5.67;;;1.50;;
3447;SDS011;1738;49.500;17.736;2023-04-15T00:25:31;2.50;;;1.50;;
3447;SDS011;1738;49.500;17.736;2023-04-15T00:27:57;2.77;;;1.70;;
3447;SDS011;1738;49.500;17.736;2023-04-15T00:30:23;3.30;;;1.53;;
3447;SDS011;1738;49.500;17.736;2023-04-15T00:32:49;2.37;;;1.40;;
3447;SDS011;1738;49.500;17.736;2023-04-15T00:35:15;2.67;;;1.40;;
3447;SDS011;1738;49.500;17.736;2023-04-15T00:37:41;2.57;;;1.50;;
3447;SDS011;1738;49.500;17.736;2023-04-15T00:40:07;2.10;;;1.30;;
3447;SDS011;1738;49.500;17.736;2023-04-15T00:42:33;4.20;;;1.70;;
3447;SDS011;1738;49.500;17.736;2023-04-15T00:44:59;3.33;;;1.70;;
3447;SDS011;1738;49.500;17.736;2023-04-15T00:47:25;2.40;;;1.40;;
3447;SDS011;1738;49.500;17.736;2023-04-15T00:49:51;2.80;;;1.27;;
3447;SDS011;1738;49.500;17.736;2023-04-15T00:52:16;2.00;;;1.20;;
3447;SDS011;1738;49.500;17.736;2023-04-15T00:54:42;2.77;;;1.53;;
3447;SDS011;1738;49.500;17.736;2023-04-15T00:57:08;2.83;;;1.80;;
3447;SDS011;1738;49.500;17.736;2023-04-15T00:59:34;2.10;;;1.30;;
3447;SDS011;1738;49.500;17.736;2023-04-15T01:02:00;2.30;;;1.37;;
3447;SDS011;1738;49.500;17.736;2023-04-15T01:04:26;3.87;;;2.70;;
3447;SDS011;1738;49.500;17.736;2023-04-15T01:06:51;3.07;;;1.97;;
3447;SDS011;1738;49.500;17.736;2023-04-15T01:09:17;2.83;;;1.93;;
3447;SDS011;1738;49.500;17.736;2023-04-15T01:11:43;2.40;;;1.60;;
3447;SDS011;1738;49.500;17.736;2023-04-15T01:14:09;2.50;;;1.50;;
3447;SDS011;1738;49.500;17.736;2023-04-15T01:16:35;2.60;;;1.73;;
3447;SDS011;1738;49.500;17.736;2023-04-15T01:19:01;2.87;;;1.80;;
3447;SDS011;1738;49.500;17.736;2023-04-15T01:21:27;3.30;;;1.87;;
3447;SDS011;1738;49.500;17.736;2023-04-15T01:23:54;3.03;;;1.43;;
3447;SDS011;1738;49.500;17.736;2023-04-15T01:26:19;2.10;;;1.27;;
3447;SDS011;1738;49.500;17.736;2023-04-15T01:28:45;2.53;;;1.60;;
3447;SDS011;1738;49.500;17.736;2023-04-15T01:31:11;2.90;;;1.60;;
3447;SDS011;1738;49.500;17.736;2023-04-15T01:33:37;2.53;;;1.50;;
3447;SDS011;1738;49.500;17.736;2023-04-15T01:36:03;2.70;;;1.83;;
3447;SDS011;1738;49.500;17.736;2023-04-15T01:38:29;2.20;;;1.67;;
3447;SDS011;1738;49.500;17.736;2023-04-15T01:40:55;2.47;;;1.67;;
3447;SDS011;1738;49.500;17.736;2023-04-15T01:43:20;2.83;;;1.97;;
3447;SDS011;1738;49.500;17.736;2023-04-15T01:45:46;3.10;;;1.97;;
3447;SDS011;1738;49.500;17.736;2023-04-15T01:48:12;2.33;;;1.40;;
3447;SDS011;1738;49.500;17.736;2023-04-15T01:50:38;3.60;;;2.50;;
3447;SDS011;1738;49.500;17.736;2023-04-15T01:53:04;2.73;;;1.60;;
3447;SDS011;1738;49.500;17.736;2023-04-15T01:55:30;3.33;;;1.50;;
3447;SDS011;1738;49.500;17.736;2023-04-15T01:57:55;2.27;;;1.40;;
3447;SDS011;1738;49.500;17.736;2023-04-15T02:00:21;2.43;;;1.57;;
3447;SDS011;1738;49.500;17.736;2023-04-15T02:02:47;3.10;;;1.63;;
3447;SDS011;1738;49.500;17.736;2023-04-15T02:05:13;2.20;;;1.50;;
3447;SDS011;1738;49.500;17.736;2023-04-15T02:07:39;2.70;;;1.50;;
3447;SDS011;1738;49.500;17.736;2023-04-15T02:10:05;5.93;;;1.30;;
3447;SDS011;1738;49.500;17.736;2023-04-15T02:12:31;2.47;;;1.40;;
3447;SDS011;1738;49.500;17.736;2023-04-15T02:14:57;2.50;;;1.53;;
3447;SDS011;1738;49.500;17.736;2023-04-15T02:17:22;2.33;;;1.40;;
3447;SDS011;1738;49.500;17.736;2023-04-15T02:19:48;3.00;;;1.20;;
3447;SDS011;1738;49.500;17.736;2023-04-15T02:22:14;2.33;;;1.27;;
3447;SDS011;1738;49.500;17.736;2023-04-15T02:24:40;2.20;;;1.50;;
3447;SDS011;1738;49.500;17.736;2023-04-15T02:27:06;2.53;;;1.67;;
3447;SDS011;1738;49.500;17.736;2023-04-15T02:29:32;2.23;;;1.43;;
3447;SDS011;1738;49.500;17.736;2023-04-15T02:31:58;2.13;;;1.30;;
3447;SDS011;1738;49.500;17.736;2023-04-15T02:34:23;4.03;;;1.43;;
3447;SDS011;1738;49.500;17.736;2023-04-15T02:36:49;2.70;;;1.60;;
3447;SDS011;1738;49.500;17.736;2023-04-15T02:39:15;2.60;;;1.80;;
3447;SDS011;1738;49.500;17.736;2023-04-15T02:41:41;2.58;;;1.50;;
3447;SDS011;1738;49.500;17.736;2023-04-15T02:44:07;2.50;;;1.50;;
3447;SDS011;1738;49.500;17.736;2023-04-15T02:46:33;3.90;;;1.53;;
3447;SDS011;1738;49.500;17.736;2023-04-15T02:48:58;3.00;;;2.00;;
3447;SDS011;1738;49.500;17.736;2023-04-15T02:51:24;3.30;;;1.73;;
3447;SDS011;1738;49.500;17.736;2023-04-15T02:53:50;2.90;;;1.73;;
3447;SDS011;1738;49.500;17.736;2023-04-15T02:56:16;2.50;;;1.50;;
3447;SDS011;1738;49.500;17.736;2023-04-15T02:58:42;2.30;;;1.43;;
3447;SDS011;1738;49.500;17.736;2023-04-15T03:01:08;3.37;;;1.70;;
3447;SDS011;1738;49.500;17.736;2023-04-15T03:03:34;3.90;;;1.70;;
3447;SDS011;1738;49.500;17.736;2023-04-15T03:05:59;2.70;;;1.80;;
3447;SDS011;1738;49.500;17.736;2023-04-15T03:08:25;3.03;;;1.90;;
3447;SDS011;1738;49.500;17.736;2023-04-15T03:10:51;7.27;;;3.33;;
3447;SDS011;1738;49.500;17.736;2023-04-15T03:13:17;4.20;;;3.30;;
3447;SDS011;1738;49.500;17.736;2023-04-15T03:15:45;6.37;;;4.03;;
3447;SDS011;1738;49.500;17.736;2023-04-15T03:18:09;6.80;;;3.63;;
3447;SDS011;1738;49.500;17.736;2023-04-15T03:20:34;4.50;;;2.77;;
3447;SDS011;1738;49.500;17.736;2023-04-15T03:23:00;5.30;;;3.20;;
3447;SDS011;1738;49.500;17.736;2023-04-15T03:25:26;5.73;;;3.83;;
3447;SDS011;1738;49.500;17.736;2023-04-15T03:27:52;3.40;;;2.17;;
3447;SDS011;1738;49.500;17.736;2023-04-15T03:30:18;4.30;;;2.00;;
3447;SDS011;1738;49.500;17.736;2023-04-15T03:32:44;2.90;;;1.70;;
3447;SDS011;1738;49.500;17.736;2023-04-15T03:35:09;3.20;;;1.77;;
3447;SDS011;1738;49.500;17.736;2023-04-15T03:37:35;4.20;;;2.27;;
3447;SDS011;1738;49.500;17.736;2023-04-15T03:40:01;7.20;;;2.07;;
3447;SDS011;1738;49.500;17.736;2023-04-15T03:42:27;2.80;;;1.70;;
3447;SDS011;1738;49.500;17.736;2023-04-15T03:44:53;3.20;;;2.27;;
3447;SDS011;1738;49.500;17.736;2023-04-15T03:47:19;3.17;;;1.87;;
3447;SDS011;1738;49.500;17.736;2023-04-15T03:49:44;3.03;;;1.80;;
3447;SDS011;1738;49.500;17.736;2023-04-15T03:52:10;2.73;;;1.77;;
3447;SDS011;1738;49.500;17.736;2023-04-15T03:54:36;3.70;;;1.83;;
3447;SDS011;1738;49.500;17.736;2023-04-15T03:57:02;3.03;;;1.70;;
3447;SDS011;1738;49.500;17.736;2023-04-15T03:59:28;2.80;;;1.90;;
3447;SDS011;1738;49.500;17.736;2023-04-15T04:01:54;4.73;;;3.90;;
3447;SDS011;1738;49.500;17.736;2023-04-15T04:04:20;4.73;;;3.70;;
3447;SDS011;1738;49.500;17.736;2023-04-15T04:06:45;7.57;;;2.93;;
3447;SDS011;1738;49.500;17.736;2023-04-15T04:09:12;5.28;;;2.62;;
3447;SDS011;1738;49.500;17.736;2023-04-15T04:11:38;3.47;;;2.30;;
3447;SDS011;1738;49.500;17.736;2023-04-15T04:14:04;3.80;;;2.47;;
3447;SDS011;1738;49.500;17.736;2023-04-15T04:16:29;7.60;;;4.80;;
3447;SDS011;1738;49.500;17.736;2023-04-15T04:18:55;9.80;;;4.80;;
3447;SDS011;1738;49.500;17.736;2023-04-15T04:21:21;7.97;;;5.83;;
3447;SDS011;1738;49.500;17.736;2023-04-15T04:23:47;11.70;;;6.20;;
3447;SDS011;1738;49.500;17.736;2023-04-15T04:26:13;11.70;;;6.87;;
3447;SDS011;1738;49.500;17.736;2023-04-15T04:28:39;11.47;;;5.83;;
3447;SDS011;1738;49.500;17.736;2023-04-15T04:31:06;9.10;;;5.37;;
3447;SDS011;1738;49.500;17.736;2023-04-15T04:33:32;8.48;;;5.25;;
3447;SDS011;1738;49.500;17.736;2023-04-15T04:35:58;10.47;;;6.07;;
3447;SDS011;1738;49.500;17.736;2023-04-15T04:38:24;10.23;;;5.37;;
3447;SDS011;1738;49.500;17.736;2023-04-15T04:40:50;6.57;;;3.45;;
3447;SDS011;1738;49.500;17.736;2023-04-15T04:43:16;9.10;;;4.53;;
3447;SDS011;1738;49.500;17.736;2023-04-15T04:45:41;7.43;;;3.33;;
3447;SDS011;1738;49.500;17.736;2023-04-15T04:48:07;7.17;;;4.20;;
3447;SDS011;1738;49.500;17.736;2023-04-15T04:50:34;9.13;;;4.10;;
3447;SDS011;1738;49.500;17.736;2023-04-15T04:52:59;27.97;;;16.00;;
3447;SDS011;1738;49.500;17.736;2023-04-15T04:55:25;8.70;;;5.30;;
3447;SDS011;1738;49.500;17.736;2023-04-15T04:57:51;11.33;;;6.20;;
3447;SDS011;1738;49.500;17.736;2023-04-15T05:00:17;12.07;;;7.63;;
3447;SDS011;1738;49.500;17.736;2023-04-15T05:02:43;9.90;;;6.10;;
3447;SDS011;1738;49.500;17.736;2023-04-15T05:05:09;41.50;;;23.83;;
3447;SDS011;1738;49.500;17.736;2023-04-15T05:07:34;6.73;;;4.27;;
3447;SDS011;1738;49.500;17.736;2023-04-15T05:10:00;4.60;;;3.67;;
3447;SDS011;1738;49.500;17.736;2023-04-15T05:12:26;41.40;;;26.53;;
3447;SDS011;1738;49.500;17.736;2023-04-15T05:14:52;22.45;;;16.77;;
3447;SDS011;1738;49.500;17.736;2023-04-15T05:17:18;24.37;;;16.37;;
3447;SDS011;1738;49.500;17.736;2023-04-15T05:19:43;15.53;;;11.53;;
3447;SDS011;1738;49.500;17.736;2023-04-15T05:22:09;14.27;;;8.73;;
3447;SDS011;1738;49.500;17.736;2023-04-15T05:24:35;9.63;;;6.27;;
3447;SDS011;1738;49.500;17.736;2023-04-15T05:27:01;9.48;;;4.72;;
3447;SDS011;1738;49.500;17.736;2023-04-15T05:29:27;8.60;;;6.40;;
3447;SDS011;1738;49.500;17.736;2023-04-15T05:31:53;10.83;;;6.87;;
3447;SDS011;1738;49.500;17.736;2023-04-15T05:34:18;10.53;;;5.80;;
3447;SDS011;1738;49.500;17.736;2023-04-15T05:36:44;6.53;;;4.50;;
3447;SDS011;1738;49.500;17.736;2023-04-15T05:39:10;4.43;;;3.70;;
3447;SDS011;1738;49.500;17.736;2023-04-15T05:41:36;4.25;;;3.10;;
3447;SDS011;1738;49.500;17.736;2023-04-15T05:44:02;4.73;;;3.53;;
3447;SDS011;1738;49.500;17.736;2023-04-15T05:46:28;4.10;;;3.13;;
3447;SDS011;1738;49.500;17.736;2023-04-15T05:48:54;6.33;;;3.80;;
3447;SDS011;1738;49.500;17.736;2023-04-15T05:51:19;3.67;;;2.70;;
3447;SDS011;1738;49.500;17.736;2023-04-15T05:53:45;3.00;;;2.35;;
3447;SDS011;1738;49.500;17.736;2023-04-15T05:56:11;3.10;;;2.20;;
3447;SDS011;1738;49.500;17.736;2023-04-15T05:58:37;3.47;;;2.17;;
3447;SDS011;1738;49.500;17.736;2023-04-15T06:01:03;4.00;;;1.90;;
3447;SDS011;1738;49.500;17.736;2023-04-15T06:03:29;2.67;;;1.50;;
3447;SDS011;1738;49.500;17.736;2023-04-15T06:05:55;2.67;;;1.73;;
3447;SDS011;1738;49.500;17.736;2023-04-15T06:08:21;2.90;;;1.83;;
3447;SDS011;1738;49.500;17.736;2023-04-15T06:10:47;2.50;;;1.60;;
3447;SDS011;1738;49.500;17.736;2023-04-15T06:13:13;2.57;;;1.40;;
3447;SDS011;1738;49.500;17.736;2023-04-15T06:15:39;2.07;;;1.33;;
3447;SDS011;1738;49.500;17.736;2023-04-15T06:18:05;2.30;;;1.42;;
3447;SDS011;1738;49.500;17.736;2023-04-15T06:20:31;2.40;;;1.57;;
3447;SDS011;1738;49.500;17.736;2023-04-15T06:22:57;2.63;;;1.53;;
3447;SDS011;1738;49.500;17.736;2023-04-15T06:25:23;2.27;;;1.53;;
3447;SDS011;1738;49.500;17.736;2023-04-15T06:27:49;2.37;;;1.60;;
3447;SDS011;1738;49.500;17.736;2023-04-15T06:30:15;2.50;;;1.70;;
3447;SDS011;1738;49.500;17.736;2023-04-15T06:32:41;2.97;;;1.60;;
3447;SDS011;1738;49.500;17.736;2023-04-15T06:35:07;2.50;;;1.50;;
3447;SDS011;1738;49.500;17.736;2023-04-15T06:37:33;2.10;;;1.30;;
3447;SDS011;1738;49.500;17.736;2023-04-15T06:39:59;2.47;;;1.30;;
3447;SDS011;1738;49.500;17.736;2023-04-15T06:42:25;2.40;;;1.50;;
3447;SDS011;1738;49.500;17.736;2023-04-15T06:44:51;2.73;;;1.33;;
3447;SDS011;1738;49.500;17.736;2023-04-15T06:47:17;2.60;;;1.40;;
3447;SDS011;1738;49.500;17.736;2023-04-15T06:49:43;3.00;;;1.67;;
3447;SDS011;1738;49.500;17.736;2023-04-15T06:52:09;3.40;;;2.10;;
3447;SDS011;1738;49.500;17.736;2023-04-15T06:54:35;6.90;;;3.17;;
3447;SDS011;1738;49.500;17.736;2023-04-15T06:57:00;3.87;;;2.70;;
3447;SDS011;1738;49.500;17.736;2023-04-15T06:59:26;4.87;;;2.63;;
3447;SDS011;1738;49.500;17.736;2023-04-15T07:01:52;3.20;;;2.17;;
3447;SDS011;1738;49.500;17.736;2023-04-15T07:04:18;8.52;;;5.00;;
3447;SDS011;1738;49.500;17.736;2023-04-15T07:06:44;20.10;;;11.03;;
3447;SDS011;1738;49.500;17.736;2023-04-15T07:09:11;27.27;;;16.70;;
3447;SDS011;1738;49.500;17.736;2023-04-15T07:11:36;22.23;;;12.90;;
3447;SDS011;1738;49.500;17.736;2023-04-15T07:14:02;11.00;;;5.90;;
3447;SDS011;1738;49.500;17.736;2023-04-15T07:16:28;9.82;;;6.53;;
3447;SDS011;1738;49.500;17.736;2023-04-15T07:18:54;7.87;;;5.30;;
3447;SDS011;1738;49.500;17.736;2023-04-15T07:21:20;6.00;;;3.50;;
3447;SDS011;1738;49.500;17.736;2023-04-15T07:23:45;9.93;;;4.90;;
3447;SDS011;1738;49.500;17.736;2023-04-15T07:26:11;4.27;;;2.27;;
3447;SDS011;1738;49.500;17.736;2023-04-15T07:28:37;4.60;;;2.33;;
3447;SDS011;1738;49.500;17.736;2023-04-15T07:31:03;8.60;;;5.03;;
3447;SDS011;1738;49.500;17.736;2023-04-15T07:33:29;7.30;;;4.57;;
3447;SDS011;1738;49.500;17.736;2023-04-15T07:35:55;2.97;;;2.20;;
3447;SDS011;1738;49.500;17.736;2023-04-15T07:38:20;3.37;;;1.80;;
3447;SDS011;1738;49.500;17.736;2023-04-15T07:40:46;2.80;;;1.70;;
3447;SDS011;1738;49.500;17.736;2023-04-15T07:43:12;4.53;;;2.90;;
3447;SDS011;1738;49.500;17.736;2023-04-15T07:45:38;5.30;;;3.60;;
3447;SDS011;1738;49.500;17.736;2023-04-15T07:48:04;4.07;;;3.27;;
3447;SDS011;1738;49.500;17.736;2023-04-15T07:50:30;5.90;;;4.40;;
3447;SDS011;1738;49.500;17.736;2023-04-15T07:52:56;6.40;;;4.30;;
3447;SDS011;1738;49.500;17.736;2023-04-15T07:55:22;5.20;;;4.10;;
3447;SDS011;1738;49.500;17.736;2023-04-15T07:57:48;5.60;;;3.30;;
3447;SDS011;1738;49.500;17.736;2023-04-15T08:00:14;2.23;;;1.30;;
3447;SDS011;1738;49.500;17.736;2023-04-15T08:02:39;5.40;;;2.60;;
3447;SDS011;1738;49.500;17.736;2023-04-15T08:05:05;3.50;;;1.77;;
3447;SDS011;1738;49.500;17.736;2023-04-15T08:07:32;3.50;;;2.40;;
3447;SDS011;1738;49.500;17.736;2023-04-15T08:09:58;3.87;;;2.00;;
3447;SDS011;1738;49.500;17.736;2023-04-15T08:12:24;4.37;;;2.13;;
3447;SDS011;1738;49.500;17.736;2023-04-15T08:14:50;3.63;;;1.63;;
3447;SDS011;1738;49.500;17.736;2023-04-15T08:17:16;3.40;;;2.10;;
3447;SDS011;1738;49.500;17.736;2023-04-15T08:19:41;2.90;;;1.73;;
3447;SDS011;1738;49.500;17.736;2023-04-15T08:22:07;4.60;;;2.97;;
3447;SDS011;1738;49.500;17.736;2023-04-15T08:24:33;2.40;;;1.30;;
3447;SDS011;1738;49.500;17.736;2023-04-15T08:26:59;2.87;;;1.80;;
3447;SDS011;1738;49.500;17.736;2023-04-15T08:29:25;2.93;;;1.70;;
3447;SDS011;1738;49.500;17.736;2023-04-15T08:31:51;4.67;;;2.80;;
3447;SDS011;1738;49.500;17.736;2023-04-15T08:34:17;3.10;;;1.90;;
3447;SDS011;1738;49.500;17.736;2023-04-15T08:36:42;5.37;;;3.73;;
3447;SDS011;1738;49.500;17.736;2023-04-15T08:39:08;3.40;;;2.30;;
3447;SDS011;1738;49.500;17.736;2023-04-15T08:41:39;3.43;;;2.23;;
3447;SDS011;1738;49.500;17.736;2023-04-15T08:44:04;4.10;;;2.60;;
3447;SDS011;1738;49.500;17.736;2023-04-15T08:46:30;3.43;;;2.33;;
3447;SDS011;1738;49.500;17.736;2023-04-15T08:48:56;2.73;;;1.60;;
3447;SDS011;1738;49.500;17.736;2023-04-15T08:51:21;4.00;;;1.87;;
3447;SDS011;1738;49.500;17.736;2023-04-15T08:53:47;4.17;;;2.43;;
3447;SDS011;1738;49.500;17.736;2023-04-15T08:56:13;2.80;;;1.80;;
3447;SDS011;1738;49.500;17.736;2023-04-15T08:58:39;2.90;;;1.90;;
3447;SDS011;1738;49.500;17.736;2023-04-15T09:01:05;3.53;;;2.15;;
3447;SDS011;1738;49.500;17.736;2023-04-15T09:03:31;5.07;;;1.63;;
3447;SDS011;1738;49.500;17.736;2023-04-15T09:05:56;2.50;;;1.40;;
3447;SDS011;1738;49.500;17.736;2023-04-15T09:08:22;2.70;;;1.60;;
3447;SDS011;1738;49.500;17.736;2023-04-15T09:10:48;3.03;;;1.60;;
3447;SDS011;1738;49.500;17.736;2023-04-15T09:13:14;2.67;;;1.50;;
3447;SDS011;1738;49.500;17.736;2023-04-15T09:15:40;3.80;;;1.70;;
3447;SDS011;1738;49.500;17.736;2023-04-15T09:18:06;2.63;;;1.60;;
3447;SDS011;1738;49.500;17.736;2023-04-15T09:23:10;4.73;;;1.60;;
3447;SDS011;1738;49.500;17.736;2023-04-15T09:25:29;2.53;;;1.23;;
3447;SDS011;1738;49.500;17.736;2023-04-15T09:27:57;2.45;;;1.40;;
3447;SDS011;1738;49.500;17.736;2023-04-15T09:30:22;3.00;;;1.37;;
3447;SDS011;1738;49.500;17.736;2023-04-15T09:32:49;3.58;;;1.95;;
3447;SDS011;1738;49.500;17.736;2023-04-15T09:35:14;2.30;;;1.30;;
3447;SDS011;1738;49.500;17.736;2023-04-15T09:37:40;3.20;;;1.77;;
3447;SDS011;1738;49.500;17.736;2023-04-15T09:40:06;2.80;;;1.40;;
3447;SDS011;1738;49.500;17.736;2023-04-15T09:42:32;2.87;;;1.37;;
3447;SDS011;1738;49.500;17.736;2023-04-15T09:47:30;2.90;;;1.53;;
3447;SDS011;1738;49.500;17.736;2023-04-15T09:49:57;2.30;;;1.40;;
3447;SDS011;1738;49.500;17.736;2023-04-15T09:52:22;2.43;;;1.13;;
3447;SDS011;1738;49.500;17.736;2023-04-15T09:54:47;3.07;;;1.57;;
3447;SDS011;1738;49.500;17.736;2023-04-15T09:57:13;2.60;;;1.30;;
3447;SDS011;1738;49.500;17.736;2023-04-15T09:59:39;2.63;;;1.50;;
3447;SDS011;1738;49.500;17.736;2023-04-15T10:02:05;2.80;;;1.60;;
3447;SDS011;1738;49.500;17.736;2023-04-15T10:04:31;2.67;;;1.30;;
3447;SDS011;1738;49.500;17.736;2023-04-15T10:06:57;3.50;;;1.90;;
3447;SDS011;1738;49.500;17.736;2023-04-15T10:09:23;3.27;;;1.57;;
3447;SDS011;1738;49.500;17.736;2023-04-15T10:11:48;2.40;;;1.40;;
3447;SDS011;1738;49.500;17.736;2023-04-15T10:14:14;4.97;;;1.70;;
3447;SDS011;1738;49.500;17.736;2023-04-15T10:16:40;2.37;;;1.20;;
3447;SDS011;1738;49.500;17.736;2023-04-15T10:19:06;6.20;;;2.47;;
3447;SDS011;1738;49.500;17.736;2023-04-15T10:21:32;3.07;;;1.87;;
3447;SDS011;1738;49.500;17.736;2023-04-15T10:23:58;3.23;;;1.73;;
3447;SDS011;1738;49.500;17.736;2023-04-15T10:26:23;2.23;;;1.30;;
3447;SDS011;1738;49.500;17.736;2023-04-15T10:28:49;2.90;;;1.80;;
3447;SDS011;1738;49.500;17.736;2023-04-15T10:31:15;2.60;;;1.53;;
3447;SDS011;1738;49.500;17.736;2023-04-15T10:33:41;2.53;;;1.37;;
3447;SDS011;1738;49.500;17.736;2023-04-15T10:36:07;7.30;;;1.90;;
3447;SDS011;1738;49.500;17.736;2023-04-15T10:38:37;2.70;;;1.93;;
3447;SDS011;1738;49.500;17.736;2023-04-15T10:43:33;2.20;;;1.30;;
3447;SDS011;1738;49.500;17.736;2023-04-15T10:45:59;4.00;;;1.98;;
3447;SDS011;1738;49.500;17.736;2023-04-15T10:48:25;2.60;;;1.47;;
3447;SDS011;1738;49.500;17.736;2023-04-15T10:50:55;2.70;;;1.50;;
3447;SDS011;1738;49.500;17.736;2023-04-15T10:53:26;2.37;;;1.40;;
3447;SDS011;1738;49.500;17.736;2023-04-15T10:55:51;2.87;;;1.60;;
3447;SDS011;1738;49.500;17.736;2023-04-15T10:58:17;2.50;;;1.27;;
3447;SDS011;1738;49.500;17.736;2023-04-15T11:00:43;2.30;;;1.30;;
3447;SDS011;1738;49.500;17.736;2023-04-15T11:03:08;2.53;;;1.33;;
3447;SDS011;1738;49.500;17.736;2023-04-15T11:05:47;2.17;;;1.20;;
3447;SDS011;1738;49.500;17.736;2023-04-15T11:08:10;2.33;;;1.33;;
3447;SDS011;1738;49.500;17.736;2023-04-15T11:10:50;5.47;;;2.43;;
3447;SDS011;1738;49.500;17.736;2023-04-15T11:13:16;3.43;;;1.83;;
3447;SDS011;1738;49.500;17.736;2023-04-15T11:15:45;3.60;;;1.70;;
3447;SDS011;1738;49.500;17.736;2023-04-15T11:18:18;4.73;;;2.20;;
3447;SDS011;1738;49.500;17.736;2023-04-15T11:20:46;2.53;;;1.40;;
3447;SDS011;1738;49.500;17.736;2023-04-15T11:23:10;7.10;;;4.50;;
3447;SDS011;1738;49.500;17.736;2023-04-15T11:25:36;4.40;;;2.23;;
3447;SDS011;1738;49.500;17.736;2023-04-15T11:28:02;12.60;;;7.50;;
3447;SDS011;1738;49.500;17.736;2023-04-15T11:30:30;18.47;;;12.93;;
3447;SDS011;1738;49.500;17.736;2023-04-15T11:32:56;3.60;;;2.07;;
3447;SDS011;1738;49.500;17.736;2023-04-15T11:35:20;2.30;;;1.20;;
3447;SDS011;1738;49.500;17.736;2023-04-15T11:37:45;2.43;;;1.43;;
3447;SDS011;1738;49.500;17.736;2023-04-15T11:40:11;2.73;;;1.30;;
3447;SDS011;1738;49.500;17.736;2023-04-15T11:42:37;2.75;;;1.58;;
3447;SDS011;1738;49.500;17.736;2023-04-15T11:45:09;2.63;;;1.40;;
3447;SDS011;1738;49.500;17.736;2023-04-15T11:47:35;2.00;;;0.97;;
3447;SDS011;1738;49.500;17.736;2023-04-15T11:52:32;2.07;;;1.03;;
3447;SDS011;1738;49.500;17.736;2023-04-15T11:55:02;2.10;;;1.00;;
3447;SDS011;1738;49.500;17.736;2023-04-15T11:57:30;2.10;;;1.00;;
3447;SDS011;1738;49.500;17.736;2023-04-15T11:59:55;2.00;;;1.00;;
3447;SDS011;1738;49.500;17.736;2023-04-15T12:02:29;2.50;;;1.23;;
3447;SDS011;1738;49.500;17.736;2023-04-15T12:04:47;1.97;;;0.97;;
3447;SDS011;1738;49.500;17.736;2023-04-15T12:07:13;3.30;;;1.93;;
3447;SDS011;1738;49.500;17.736;2023-04-15T12:09:39;2.10;;;1.10;;
3447;SDS011;1738;49.500;17.736;2023-04-15T12:12:05;2.03;;;1.13;;
3447;SDS011;1738;49.500;17.736;2023-04-15T12:14:31;2.27;;;1.20;;
3447;SDS011;1738;49.500;17.736;2023-04-15T12:16:58;2.25;;;1.17;;
3447;SDS011;1738;49.500;17.736;2023-04-15T12:19:25;2.35;;;1.33;;
3447;SDS011;1738;49.500;17.736;2023-04-15T12:21:50;2.20;;;1.30;;
3447;SDS011;1738;49.500;17.736;2023-04-15T12:24:18;3.23;;;1.10;;
3447;SDS011;1738;49.500;17.736;2023-04-15T12:26:44;2.10;;;1.07;;
3447;SDS011;1738;49.500;17.736;2023-04-15T12:29:10;2.63;;;1.40;;
3447;SDS011;1738;49.500;17.736;2023-04-15T12:31:35;3.70;;;1.20;;
3447;SDS011;1738;49.500;17.736;2023-04-15T12:34:01;2.20;;;1.13;;
3447;SDS011;1738;49.500;17.736;2023-04-15T12:36:27;2.33;;;1.40;;
3447;SDS011;1738;49.500;17.736;2023-04-15T12:38:53;2.40;;;1.57;;
3447;SDS011;1738;49.500;17.736;2023-04-15T12:41:19;2.55;;;1.15;;
3447;SDS011;1738;49.500;17.736;2023-04-15T12:43:44;2.00;;;1.00;;
3447;SDS011;1738;49.500;17.736;2023-04-15T12:46:11;2.00;;;1.03;;
3447;SDS011;1738;49.500;17.736;2023-04-15T12:48:37;3.00;;;1.30;;
3447;SDS011;1738;49.500;17.736;2023-04-15T12:51:03;3.90;;;1.97;;
3447;SDS011;1738;49.500;17.736;2023-04-15T12:53:28;2.43;;;1.40;;
3447;SDS011;1738;49.500;17.736;2023-04-15T12:55:54;3.73;;;1.60;;
3447;SDS011;1738;49.500;17.736;2023-04-15T12:58:20;2.97;;;1.93;;
3447;SDS011;1738;49.500;17.736;2023-04-15T13:00:46;3.17;;;1.90;;
3447;SDS011;1738;49.500;17.736;2023-04-15T13:03:12;3.30;;;1.70;;
3447;SDS011;1738;49.500;17.736;2023-04-15T13:05:38;2.87;;;1.57;;
3447;SDS011;1738;49.500;17.736;2023-04-15T13:08:04;2.50;;;1.13;;
3447;SDS011;1738;49.500;17.736;2023-04-15T13:10:30;3.13;;;1.30;;
3447;SDS011;1738;49.500;17.736;2023-04-15T13:12:56;3.53;;;1.37;;
3447;SDS011;1738;49.500;17.736;2023-04-15T13:15:21;2.33;;;1.37;;
3447;SDS011;1738;49.500;17.736;2023-04-15T13:17:47;3.70;;;1.80;;
3447;SDS011;1738;49.500;17.736;2023-04-15T13:20:13;2.90;;;1.50;;
3447;SDS011;1738;49.500;17.736;2023-04-15T13:22:39;4.23;;;1.80;;
3447;SDS011;1738;49.500;17.736;2023-04-15T13:25:05;2.70;;;1.70;;
3447;SDS011;1738;49.500;17.736;2023-04-15T13:27:31;2.20;;;1.20;;
3447;SDS011;1738;49.500;17.736;2023-04-15T13:29:57;2.70;;;1.40;;
3447;SDS011;1738;49.500;17.736;2023-04-15T13:32:23;1.97;;;1.03;;
3447;SDS011;1738;49.500;17.736;2023-04-15T13:34:49;2.80;;;1.40;;
3447;SDS011;1738;49.500;17.736;2023-04-15T13:37:15;2.40;;;1.20;;
3447;SDS011;1738;49.500;17.736;2023-04-15T13:39:40;2.03;;;1.17;;
3447;SDS011;1738;49.500;17.736;2023-04-15T13:42:06;2.20;;;1.10;;
3447;SDS011;1738;49.500;17.736;2023-04-15T13:44:32;2.30;;;1.10;;
3447;SDS011;1738;49.500;17.736;2023-04-15T13:46:58;2.77;;;1.37;;
3447;SDS011;1738;49.500;17.736;2023-04-15T13:49:24;2.20;;;1.00;;
3447;SDS011;1738;49.500;17.736;2023-04-15T13:51:50;7.80;;;1.30;;
3447;SDS011;1738;49.500;17.736;2023-04-15T13:54:15;2.37;;;1.33;;
3447;SDS011;1738;49.500;17.736;2023-04-15T13:56:41;2.47;;;1.20;;
3447;SDS011;1738;49.500;17.736;2023-04-15T13:59:07;2.40;;;1.30;;
3447;SDS011;1738;49.500;17.736;2023-04-15T14:01:33;2.50;;;1.50;;
3447;SDS011;1738;49.500;17.736;2023-04-15T14:03:59;5.70;;;1.50;;
3447;SDS011;1738;49.500;17.736;2023-04-15T14:06:25;2.63;;;1.70;;
3447;SDS011;1738;49.500;17.736;2023-04-15T14:08:50;3.30;;;2.20;;
3447;SDS011;1738;49.500;17.736;2023-04-15T14:11:16;2.65;;;1.98;;
3447;SDS011;1738;49.500;17.736;2023-04-15T14:13:42;4.60;;;1.70;;
3447;SDS011;1738;49.500;17.736;2023-04-15T14:16:08;3.40;;;1.73;;
3447;SDS011;1738;49.500;17.736;2023-04-15T14:18:34;2.87;;;1.57;;
3447;SDS011;1738;49.500;17.736;2023-04-15T14:21:00;2.80;;;1.80;;
3447;SDS011;1738;49.500;17.736;2023-04-15T14:23:26;2.90;;;2.10;;
3447;SDS011;1738;49.500;17.736;2023-04-15T14:25:51;3.67;;;2.23;;
3447;SDS011;1738;49.500;17.736;2023-04-15T14:28:17;4.03;;;2.20;;
3447;SDS011;1738;49.500;17.736;2023-04-15T14:30:43;6.17;;;2.50;;
3447;SDS011;1738;49.500;17.736;2023-04-15T14:33:09;4.27;;;2.40;;
3447;SDS011;1738;49.500;17.736;2023-04-15T14:35:35;3.97;;;2.50;;
3447;SDS011;1738;49.500;17.736;2023-04-15T14:38:01;3.83;;;2.27;;
3447;SDS011;1738;49.500;17.736;2023-04-15T14:40:26;4.23;;;2.50;;
3447;SDS011;1738;49.500;17.736;2023-04-15T14:42:52;3.30;;;2.20;;
3447;SDS011;1738;49.500;17.736;2023-04-15T14:45:18;6.27;;;2.77;;
3447;SDS011;1738;49.500;17.736;2023-04-15T14:47:44;3.92;;;2.75;;
3447;SDS011;1738;49.500;17.736;2023-04-15T14:50:10;3.90;;;2.77;;
3447;SDS011;1738;49.500;17.736;2023-04-15T14:52:36;3.83;;;2.50;;
3447;SDS011;1738;49.500;17.736;2023-04-15T14:55:04;3.23;;;2.03;;
3447;SDS011;1738;49.500;17.736;2023-04-15T14:57:30;3.60;;;2.40;;
3447;SDS011;1738;49.500;17.736;2023-04-15T14:59:55;3.93;;;2.13;;
3447;SDS011;1738;49.500;17.736;2023-04-15T15:02:21;3.50;;;2.30;;